Time;durP1;ratioP1;P1;durP2;ratioP2;P2;SDS_P1;SDS_P2;PMS_P1;PMS_P2;Temp;Humidity;BMP_temperature;BMP_pressure;BME280_temperature;BME280_humidity;BME280_pressure;Samples;Min_cycle;Max_cycle;Signal;HPM_P1;HPM_P2
2022/01/09 00:00:49;;;;;;;13.90;3.47;;;5.00;99.90;;;;;;4995707;28;20231;-86
2022/01/09 00:03:16;;;;;;;15.23;4.27;;;5.00;99.90;;;;;;4996900;28;20219;-86
2022/01/09 00:05:43;;;;;;;15.83;4.30;;;4.90;99.90;;;;;;4994515;28;20221;-86
2022/01/09 00:08:12;;;;;;;16.03;4.27;;;5.00;99.90;;;;;;4995933;28;20241;-85
2022/01/09 00:10:45;;;;;;;27.70;7.40;;;4.90;99.90;;;;;;5011691;28;20304;-84
2022/01/09 00:13:12;;;;;;;11.93;3.23;;;5.00;99.90;;;;;;4994658;28;20219;-86
2022/01/09 00:15:40;;;;;;;14.30;4.03;;;4.90;99.90;;;;;;5013147;28;20213;-86
2022/01/09 00:18:07;;;;;;;13.63;3.73;;;4.90;99.90;;;;;;5012470;28;20221;-85
2022/01/09 00:20:34;;;;;;;13.53;3.47;;;5.00;99.90;;;;;;4997476;28;20349;-86
2022/01/09 00:23:01;;;;;;;15.97;3.80;;;5.00;99.90;;;;;;5016781;28;20211;-87
2022/01/09 00:25:30;;;;;;;12.93;3.63;;;5.00;99.90;;;;;;4994508;28;20214;-86
2022/01/09 00:27:57;;;;;;;13.63;3.70;;;6.10;99.90;;;;;;4989840;28;20211;-86
2022/01/09 00:30:24;;;;;;;15.00;3.83;;;5.00;99.90;;;;;;4994688;28;20226;-86
2022/01/09 00:32:52;;;;;;;14.27;3.83;;;4.90;99.90;;;;;;4993457;28;20214;-86
2022/01/09 00:35:19;;;;;;;12.30;3.30;;;5.10;99.90;;;;;;5012576;28;20221;-85
2022/01/09 00:37:46;;;;;;;15.67;4.00;;;5.00;99.90;;;;;;5012445;28;20209;-86
2022/01/09 00:40:14;;;;;;;13.60;3.63;;;5.00;99.90;;;;;;5011776;28;20957;-86
2022/01/09 00:42:43;;;;;;;15.07;4.47;;;5.00;99.90;;;;;;5008992;28;20215;-84
2022/01/09 00:45:12;;;;;;;14.23;3.97;;;5.10;99.90;;;;;;4988413;28;20209;-86
2022/01/09 00:47:39;;;;;;;16.20;4.47;;;5.10;99.90;;;;;;4999765;28;20245;-84
2022/01/09 00:50:07;;;;;;;14.43;4.13;;;5.00;99.90;;;;;;5003401;28;20775;-86
2022/01/09 00:52:34;;;;;;;10.93;3.43;;;5.10;99.90;;;;;;4993194;28;20212;-86
2022/01/09 00:55:01;;;;;;;13.53;3.90;;;5.20;99.90;;;;;;5002089;28;20238;-86
2022/01/09 00:57:29;;;;;;;13.93;3.37;;;5.10;99.90;;;;;;5012046;28;20222;-86
2022/01/09 00:59:57;;;;;;;16.07;4.13;;;5.10;99.90;;;;;;5011767;28;20658;-86
2022/01/09 01:02:24;;;;;;;13.67;3.93;;;5.10;99.90;;;;;;4991462;28;20304;-87
2022/01/09 01:04:51;;;;;;;16.40;4.17;;;5.10;99.90;;;;;;4994747;28;20226;-86
2022/01/09 01:07:19;;;;;;;15.27;3.93;;;5.10;99.90;;;;;;4987657;28;20245;-86
2022/01/09 01:09:46;;;;;;;15.63;4.20;;;5.20;99.90;;;;;;4994028;28;20289;-86
2022/01/09 01:12:13;;;;;;;14.57;3.90;;;5.10;99.90;;;;;;5013023;28;20687;-85
2022/01/09 01:14:40;;;;;;;19.93;4.77;;;5.10;99.90;;;;;;4996421;28;22353;-85
2022/01/09 01:17:09;;;;;;;12.43;3.50;;;5.20;99.90;;;;;;4998588;28;20301;-87
2022/01/09 01:19:36;;;;;;;18.10;4.60;;;5.20;99.90;;;;;;5011713;28;20206;-86
2022/01/09 01:22:03;;;;;;;14.17;3.50;;;5.50;99.90;;;;;;4992849;28;20230;-86
2022/01/09 01:24:30;;;;;;;13.17;3.80;;;5.20;99.90;;;;;;4992870;28;20682;-86
2022/01/09 01:26:57;;;;;;;15.80;4.43;;;5.20;99.90;;;;;;4993662;28;20297;-87
2022/01/09 01:29:24;;;;;;;16.00;4.37;;;5.20;99.90;;;;;;4993039;28;20234;-86
2022/01/09 01:31:51;;;;;;;20.80;5.73;;;5.30;99.90;;;;;;5011513;28;20704;-86
2022/01/09 01:34:19;;;;;;;13.57;3.90;;;5.30;99.90;;;;;;4994255;28;20260;-87
2022/01/09 01:36:46;;;;;;;16.83;4.63;;;5.30;99.90;;;;;;4994071;28;20245;-84
2022/01/09 01:39:15;;;;;;;14.37;4.33;;;5.30;99.90;;;;;;4995618;28;20206;-84
2022/01/09 01:41:43;;;;;;;26.53;5.20;;;5.40;99.90;;;;;;5013559;28;20238;-84
2022/01/09 01:44:11;;;;;;;14.50;4.07;;;5.40;99.90;;;;;;4994570;28;20225;-84
2022/01/09 01:46:39;;;;;;;15.90;4.30;;;5.40;99.90;;;;;;4994024;28;20218;-84
2022/01/09 01:49:10;;;;;;;13.60;3.90;;;5.30;99.90;;;;;;5000907;28;20363;-84
2022/01/09 01:51:39;;;;;;;17.50;4.67;;;5.40;99.90;;;;;;4998116;28;20245;-85
2022/01/09 01:54:08;;;;;;;15.87;4.67;;;5.30;99.90;;;;;;5002177;28;20206;-84
2022/01/09 01:56:36;;;;;;;16.37;4.53;;;5.40;99.90;;;;;;5007985;28;20218;-84
2022/01/09 01:59:03;;;;;;;14.90;4.63;;;5.40;99.90;;;;;;5024297;28;20211;-84
2022/01/09 02:01:30;;;;;;;14.17;4.63;;;5.50;99.90;;;;;;5001797;28;20233;-85
2022/01/09 02:03:57;;;;;;;16.37;5.17;;;5.60;99.90;;;;;;5002973;28;20214;-85
2022/01/09 02:06:25;;;;;;;12.30;3.67;;;5.50;99.90;;;;;;4999584;28;20211;-84
2022/01/09 02:08:54;;;;;;;13.40;3.80;;;5.50;99.90;;;;;;5010596;28;20217;-85
2022/01/09 02:11:21;;;;;;;18.67;6.13;;;5.50;99.90;;;;;;4999952;28;20328;-85
2022/01/09 02:13:48;;;;;;;14.40;4.40;;;5.60;99.90;;;;;;5008775;28;20219;-85
2022/01/09 02:16:18;;;;;;;18.23;6.40;;;5.60;99.90;;;;;;5028775;28;20207;-84
2022/01/09 02:18:46;;;;;;;20.63;7.77;;;5.60;99.90;;;;;;5002732;28;20215;-84
2022/01/09 02:21:15;;;;;;;18.83;6.17;;;5.70;99.90;;;;;;5017188;28;20235;-84
2022/01/09 02:23:45;;;;;;;18.27;6.30;;;5.70;99.90;;;;;;5017715;28;20214;-84
2022/01/09 02:26:12;;;;;;;15.13;4.67;;;5.70;99.90;;;;;;4999916;28;20206;-84
2022/01/09 02:28:39;;;;;;;14.63;4.40;;;5.70;99.90;;;;;;5022084;28;20210;-84
2022/01/09 02:31:07;;;;;;;16.60;4.90;;;5.80;99.90;;;;;;5013161;28;20214;-84
2022/01/09 02:33:34;;;;;;;15.30;4.13;;;5.80;99.90;;;;;;5012628;28;20245;-84
2022/01/09 02:36:01;;;;;;;15.40;4.53;;;5.70;99.90;;;;;;5028278;28;20241;-84
2022/01/09 02:38:29;;;;;;;14.97;4.40;;;5.80;99.90;;;;;;5012656;28;20338;-85
2022/01/09 02:40:56;;;;;;;13.97;3.80;;;5.80;99.90;;;;;;5012455;28;20214;-85
2022/01/09 02:43:23;;;;;;;15.43;4.37;;;5.80;99.90;;;;;;5013254;28;20230;-85
2022/01/09 02:45:57;;;;;;;16.07;4.20;;;5.80;99.90;;;;;;5028651;28;20201;-84
2022/01/09 02:48:24;;;;;;;17.37;4.90;;;5.80;99.90;;;;;;5034394;28;20270;-84
2022/01/09 02:51:01;;;;;;;17.37;4.73;;;5.80;99.90;;;;;;5014469;28;20262;-84
2022/01/09 02:53:33;;;;;;;15.63;4.37;;;5.80;99.90;;;;;;5012497;28;20542;-85
2022/01/09 02:56:00;;;;;;;13.90;3.77;;;5.90;99.90;;;;;;5002348;28;20217;-85
2022/01/09 02:58:27;;;;;;;13.73;3.73;;;5.90;99.90;;;;;;5020441;28;20207;-86
2022/01/09 03:00:54;;;;;;;18.23;4.30;;;6.10;99.90;;;;;;4998478;28;20227;-86
2022/01/09 03:03:21;;;;;;;15.80;4.00;;;5.90;99.90;;;;;;5023020;28;20211;-85
2022/01/09 03:05:48;;;;;;;18.33;4.50;;;5.90;99.90;;;;;;5006614;28;20213;-86
2022/01/09 03:08:15;;;;;;;16.10;3.90;;;5.80;99.90;;;;;;5014573;28;20219;-86
2022/01/09 03:10:43;;;;;;;15.20;3.57;;;5.80;99.90;;;;;;5011659;28;20230;-86
2022/01/09 03:13:10;;;;;;;16.03;3.70;;;5.70;99.90;;;;;;5011606;28;20226;-86
2022/01/09 03:15:38;;;;;;;15.93;3.97;;;5.70;99.90;;;;;;5012515;28;20654;-86
2022/01/09 03:18:05;;;;;;;17.77;4.50;;;5.70;99.90;;;;;;4994503;28;20206;-85
2022/01/09 03:20:32;;;;;;;20.27;4.27;;;5.80;99.90;;;;;;4995113;28;20248;-85
2022/01/09 03:22:59;;;;;;;17.43;3.97;;;5.70;99.90;;;;;;4992326;28;20210;-85
2022/01/09 03:25:27;;;;;;;19.70;4.10;;;5.70;99.90;;;;;;5005206;28;20222;-85
2022/01/09 03:27:57;;;;;;;13.83;3.23;;;5.90;99.90;;;;;;4994066;28;20732;-85
2022/01/09 03:30:25;;;;;;;16.03;3.57;;;5.70;99.90;;;;;;4994394;28;20235;-85
2022/01/09 03:32:54;;;;;;;21.90;4.00;;;5.80;99.90;;;;;;4994089;28;20214;-86
2022/01/09 03:35:24;;;;;;;16.73;3.57;;;5.70;99.90;;;;;;5010078;28;20207;-85
2022/01/09 03:37:52;;;;;;;18.90;4.40;;;5.70;99.90;;;;;;5010240;28;20210;-85
2022/01/09 03:40:21;;;;;;;18.73;4.13;;;5.80;99.90;;;;;;5009555;28;20235;-85
2022/01/09 03:42:50;;;;;;;17.50;4.37;;;5.80;99.90;;;;;;5009773;28;20317;-85
2022/01/09 03:45:19;;;;;;;10.03;3.00;;;5.80;99.90;;;;;;4992929;28;20222;-85
2022/01/09 03:47:46;;;;;;;30.03;5.23;;;5.90;99.90;;;;;;4993648;28;20217;-85
2022/01/09 03:50:14;;;;;;;28.80;5.97;;;5.90;99.90;;;;;;4992476;28;20654;-85
2022/01/09 03:52:41;;;;;;;23.83;5.30;;;6.00;99.90;;;;;;4989036;28;20214;-85
2022/01/09 03:55:10;;;;;;;27.50;6.30;;;6.00;99.90;;;;;;4990380;28;20218;-85
2022/01/09 03:57:38;;;;;;;31.83;5.77;;;6.10;99.90;;;;;;4985410;28;20211;-85
2022/01/09 04:00:08;;;;;;;36.37;6.87;;;6.10;99.90;;;;;;4993868;28;20223;-85
2022/01/09 04:02:37;;;;;;;26.87;5.80;;;6.20;99.90;;;;;;4994406;28;20220;-85
2022/01/09 04:05:04;;;;;;;31.13;5.80;;;6.20;99.90;;;;;;4992539;28;20211;-85
2022/01/09 04:07:31;;;;;;;18.63;4.20;;;6.20;99.90;;;;;;4993607;28;20226;-85
2022/01/09 04:09:58;;;;;;;21.90;4.90;;;6.20;99.90;;;;;;4993632;28;20249;-84
2022/01/09 04:12:34;;;;;;;23.07;5.10;;;6.20;99.90;;;;;;5010599;28;20239;-85
2022/01/09 04:15:04;;;;;;;23.60;5.00;;;6.20;99.90;;;;;;5003382;28;20645;-85
2022/01/09 04:17:39;;;;;;;15.13;3.67;;;6.20;99.90;;;;;;4993934;28;20748;-86
2022/01/09 04:20:09;;;;;;;36.37;6.33;;;6.30;99.90;;;;;;4995096;28;20230;-86
2022/01/09 04:22:36;;;;;;;20.60;5.00;;;6.30;99.90;;;;;;4999739;28;20221;-85
2022/01/09 04:25:04;;;;;;;30.53;5.53;;;6.30;99.90;;;;;;5008704;28;20195;-85
2022/01/09 04:27:31;;;;;;;27.67;6.07;;;6.30;99.90;;;;;;5028672;28;20195;-85
2022/01/09 04:29:58;;;;;;;30.47;6.10;;;6.30;99.90;;;;;;5013428;28;20226;-85
2022/01/09 04:32:25;;;;;;;28.43;7.50;;;6.40;99.90;;;;;;4993689;28;20350;-86
2022/01/09 04:34:52;;;;;;;32.90;6.63;;;6.40;99.90;;;;;;5009358;28;20290;-85
2022/01/09 04:37:21;;;;;;;25.90;5.73;;;6.40;99.90;;;;;;5008270;28;20206;-86
2022/01/09 04:39:50;;;;;;;32.90;7.00;;;6.40;99.90;;;;;;4993602;28;20223;-85
2022/01/09 04:42:17;;;;;;;33.17;6.17;;;6.50;99.90;;;;;;4991958;28;20250;-85
2022/01/09 04:44:44;;;;;;;26.93;6.80;;;6.50;99.90;;;;;;4994258;28;20289;-86
2022/01/09 04:47:14;;;;;;;29.20;6.10;;;6.50;99.90;;;;;;4993730;28;20218;-85
2022/01/09 04:49:44;;;;;;;33.70;7.03;;;6.50;99.90;;;;;;5012011;28;20217;-85
2022/01/09 04:52:14;;;;;;;22.07;5.63;;;6.50;99.90;;;;;;5010071;28;20533;-86
2022/01/09 04:54:44;;;;;;;27.63;6.23;;;6.60;99.90;;;;;;5012112;28;20210;-86
2022/01/09 04:57:11;;;;;;;29.87;6.97;;;6.60;99.90;;;;;;5010984;28;20203;-86
2022/01/09 04:59:38;;;;;;;32.20;7.70;;;6.60;99.90;;;;;;5005460;28;20678;-86
2022/01/09 05:02:05;;;;;;;29.43;6.93;;;6.70;99.90;;;;;;4993876;28;20234;-85
2022/01/09 05:04:32;;;;;;;34.50;6.37;;;6.70;99.90;;;;;;5006623;28;20219;-86
2022/01/09 05:06:59;;;;;;;41.70;7.33;;;6.70;99.90;;;;;;4991340;28;20804;-86
2022/01/09 05:09:26;;;;;;;34.93;6.67;;;6.70;99.90;;;;;;4993559;28;20211;-86
2022/01/09 05:11:54;;;;;;;25.97;5.23;;;6.70;99.90;;;;;;5002407;28;20241;-86
2022/01/09 05:14:21;;;;;;;25.47;5.87;;;6.70;99.90;;;;;;5021146;28;20207;-86
2022/01/09 05:16:49;;;;;;;24.10;5.97;;;7.00;99.90;;;;;;5003624;28;20210;-86
2022/01/09 05:19:21;;;;;;;24.60;5.93;;;6.80;99.90;;;;;;4993387;28;20225;-86
2022/01/09 05:21:49;;;;;;;27.63;6.13;;;6.90;99.90;;;;;;5006846;28;20227;-86
2022/01/09 05:24:16;;;;;;;18.97;4.97;;;6.80;99.90;;;;;;4989785;28;20639;-86
2022/01/09 05:26:44;;;;;;;33.40;6.90;;;6.80;99.90;;;;;;4990553;28;20234;-86
2022/01/09 05:29:12;;;;;;;23.17;5.67;;;6.90;99.90;;;;;;4991577;28;20678;-86
2022/01/09 05:31:39;;;;;;;30.33;6.37;;;6.90;99.90;;;;;;5006852;28;20272;-86
2022/01/09 05:34:07;;;;;;;24.23;5.87;;;6.90;99.90;;;;;;4995479;28;20203;-86
2022/01/09 05:36:34;;;;;;;21.27;5.13;;;7.00;99.90;;;;;;5008427;28;20229;-86
2022/01/09 05:39:01;;;;;;;25.30;6.20;;;6.90;99.90;;;;;;4998902;28;20187;-85
2022/01/09 05:41:28;;;;;;;21.50;5.70;;;6.90;99.90;;;;;;4992786;28;20238;-86
2022/01/09 05:43:55;;;;;;;24.50;5.47;;;6.90;99.90;;;;;;5009465;28;20224;-85
2022/01/09 05:46:24;;;;;;;30.30;5.77;;;6.90;99.90;;;;;;5006833;28;20206;-86
2022/01/09 05:48:51;;;;;;;18.90;5.47;;;6.90;99.90;;;;;;4991001;28;20218;-85
2022/01/09 05:51:18;;;;;;;27.87;5.63;;;6.80;99.90;;;;;;4989389;28;20241;-85
2022/01/09 05:53:45;;;;;;;25.17;4.97;;;6.80;99.90;;;;;;5006830;28;20743;-85
2022/01/09 05:56:12;;;;;;;18.83;5.20;;;6.80;99.90;;;;;;4999496;28;20211;-85
2022/01/09 05:58:40;;;;;;;21.37;5.53;;;6.80;99.90;;;;;;4991270;28;20215;-86
2022/01/09 06:01:07;;;;;;;19.30;4.63;;;6.80;99.90;;;;;;4992367;28;20329;-85
2022/01/09 06:03:36;;;;;;;19.97;4.77;;;6.70;99.90;;;;;;5007385;28;20222;-85
2022/01/09 06:06:03;;;;;;;20.10;4.80;;;6.70;99.90;;;;;;4987580;28;20210;-85
2022/01/09 06:08:30;;;;;;;25.50;5.50;;;6.70;99.90;;;;;;4990583;28;20199;-86
2022/01/09 06:10:57;;;;;;;20.80;5.37;;;6.70;99.90;;;;;;4995729;28;20528;-85
2022/01/09 06:13:24;;;;;;;23.77;5.37;;;6.70;99.90;;;;;;4992952;28;20211;-85
2022/01/09 06:15:51;;;;;;;15.37;4.37;;;6.70;99.90;;;;;;4982022;28;20218;-86
2022/01/09 06:18:19;;;;;;;25.97;5.47;;;6.70;99.90;;;;;;4989333;28;20307;-85
2022/01/09 06:20:48;;;;;;;20.53;5.00;;;6.60;99.90;;;;;;5004500;28;20230;-88
2022/01/09 06:23:19;;;;;;;22.77;5.60;;;7.10;99.90;;;;;;4989674;28;20211;-87
2022/01/09 06:25:47;;;;;;;22.60;5.37;;;6.60;99.90;;;;;;4990068;28;20727;-87
2022/01/09 06:28:14;;;;;;;22.67;5.63;;;6.60;99.90;;;;;;5008480;28;20214;-87
2022/01/09 06:30:41;;;;;;;24.77;5.10;;;6.60;99.90;;;;;;5007879;28;20238;-87
2022/01/09 06:33:08;;;;;;;24.67;5.37;;;6.60;99.90;;;;;;5007720;28;20823;-85
2022/01/09 06:35:35;;;;;;;16.93;4.20;;;6.50;99.90;;;;;;5008448;28;20221;-85
2022/01/09 06:38:04;;;;;;;23.47;4.93;;;6.50;99.90;;;;;;5008658;28;20241;-86
2022/01/09 06:40:31;;;;;;;24.57;6.17;;;6.50;99.90;;;;;;4988685;28;20250;-85
2022/01/09 06:42:58;;;;;;;23.77;5.13;;;6.50;99.90;;;;;;4990859;28;20221;-85
2022/01/09 06:45:27;;;;;;;20.73;5.17;;;6.40;99.90;;;;;;4990069;28;20218;-85
2022/01/09 06:47:54;;;;;;;26.20;5.00;;;6.40;99.90;;;;;;4989521;28;20234;-86
2022/01/09 06:50:22;;;;;;;18.13;4.50;;;6.40;99.90;;;;;;4992334;28;20234;-87
2022/01/09 06:52:49;;;;;;;21.47;5.33;;;6.40;99.90;;;;;;5013487;28;21205;-86
2022/01/09 06:55:17;;;;;;;23.37;5.60;;;6.30;99.90;;;;;;5012632;28;20251;-86
2022/01/09 06:57:44;;;;;;;21.20;4.43;;;6.40;99.90;;;;;;5016390;28;20225;-86
2022/01/09 07:00:13;;;;;;;21.20;4.93;;;6.40;99.90;;;;;;4998484;28;20226;-86
2022/01/09 07:02:40;;;;;;;21.00;5.07;;;6.30;99.90;;;;;;4994446;28;20211;-87
2022/01/09 07:05:08;;;;;;;14.30;4.37;;;6.30;99.90;;;;;;5012561;28;20210;-86
2022/01/09 07:07:35;;;;;;;29.93;5.77;;;6.40;99.90;;;;;;4995801;28;20221;-86
2022/01/09 07:10:03;;;;;;;26.90;5.97;;;7.00;99.90;;;;;;4994401;28;20206;-87
2022/01/09 07:12:31;;;;;;;23.17;6.27;;;6.30;99.90;;;;;;5003427;28;20409;-86
2022/01/09 07:14:58;;;;;;;18.97;4.50;;;6.40;99.90;;;;;;4993658;28;20230;-86
2022/01/09 07:17:25;;;;;;;18.63;4.47;;;6.30;99.90;;;;;;4993131;28;20219;-87
2022/01/09 07:19:52;;;;;;;17.30;4.37;;;6.30;99.90;;;;;;5012031;28;20923;-87
2022/01/09 07:22:19;;;;;;;17.20;4.47;;;6.20;99.90;;;;;;5010515;28;20199;-87
2022/01/09 07:24:46;;;;;;;21.40;5.40;;;6.20;99.90;;;;;;4994918;28;20213;-86
2022/01/09 07:27:13;;;;;;;11.70;3.03;;;6.20;99.90;;;;;;4997487;28;20207;-87
2022/01/09 07:29:41;;;;;;;18.23;5.00;;;6.20;99.90;;;;;;5000303;28;20973;-87
2022/01/09 07:32:09;;;;;;;11.07;3.23;;;6.30;99.90;;;;;;4996374;28;20265;-87
2022/01/09 07:34:36;;;;;;;16.57;4.60;;;6.20;99.90;;;;;;4996851;28;20218;-88
2022/01/09 07:37:04;;;;;;;15.93;4.27;;;6.20;99.90;;;;;;5013368;28;20619;-90
2022/01/09 07:39:31;;;;;;;16.87;4.70;;;6.20;99.90;;;;;;5004072;28;20274;-89
2022/01/09 07:41:59;;;;;;;15.77;4.13;;;6.20;99.90;;;;;;5015854;28;20283;-90
2022/01/09 07:44:27;;;;;;;14.93;4.03;;;6.20;99.90;;;;;;5001740;28;20270;-89
2022/01/09 07:46:56;;;;;;;13.73;4.03;;;7.50;99.90;;;;;;4999781;28;20214;-89
2022/01/09 07:49:24;;;;;;;11.10;3.23;;;6.30;99.90;;;;;;4997489;28;20895;-89
2022/01/09 07:51:53;;;;;;;13.07;2.93;;;6.30;99.90;;;;;;5002764;28;20592;-89
2022/01/09 07:54:21;;;;;;;13.17;3.53;;;6.30;99.90;;;;;;4989316;28;20260;-90
2022/01/09 07:56:49;;;;;;;20.10;4.50;;;6.50;99.90;;;;;;4998660;28;20241;-90
2022/01/09 07:59:17;;;;;;;16.40;4.90;;;6.30;99.90;;;;;;4994456;28;20242;-90
2022/01/09 08:01:44;;;;;;;18.10;4.53;;;6.30;99.90;;;;;;4997258;28;20229;-89
2022/01/09 08:04:12;;;;;;;29.50;7.47;;;6.80;99.90;;;;;;4994988;28;20625;-90
2022/01/09 08:06:40;;;;;;;21.07;5.50;;;6.20;99.90;;;;;;4994996;28;20245;-89
2022/01/09 08:09:07;;;;;;;25.57;7.13;;;6.30;99.90;;;;;;4996797;28;20196;-89
2022/01/09 08:11:34;;;;;;;21.23;6.97;;;6.10;99.90;;;;;;5012270;28;20222;-89
2022/01/09 08:14:03;;;;;;;33.57;8.10;;;6.00;99.90;;;;;;4997143;28;20566;-89
2022/01/09 08:16:30;;;;;;;19.00;6.50;;;6.00;99.90;;;;;;4994282;28;20222;-88
2022/01/09 08:18:57;;;;;;;25.63;6.83;;;6.40;99.90;;;;;;4993091;28;20202;-88
2022/01/09 08:21:26;;;;;;;22.50;6.73;;;5.90;99.90;;;;;;5024008;28;20215;-89
2022/01/09 08:23:53;;;;;;;30.93;7.50;;;5.90;99.90;;;;;;5014765;28;20223;-88
2022/01/09 08:26:20;;;;;;;24.10;7.97;;;5.90;99.90;;;;;;5005939;28;20215;-88
2022/01/09 08:28:49;;;;;;;29.33;7.33;;;5.90;99.90;;;;;;5001932;28;20227;-89
2022/01/09 08:31:17;;;;;;;30.87;7.60;;;5.90;99.90;;;;;;4994824;28;20230;-89
2022/01/09 08:33:47;;;;;;;16.27;5.20;;;6.10;99.90;;;;;;4994237;28;20618;-87
2022/01/09 08:36:15;;;;;;;18.40;5.73;;;5.90;99.90;;;;;;4994970;28;20302;-87
2022/01/09 08:38:43;;;;;;;17.97;5.20;;;6.10;99.90;;;;;;4996804;28;20218;-87
2022/01/09 08:41:10;;;;;;;25.03;5.10;;;5.90;99.90;;;;;;4995630;28;20261;-88
2022/01/09 08:43:38;;;;;;;18.20;4.80;;;6.20;99.90;;;;;;4992078;28;20772;-88
2022/01/09 08:46:05;;;;;;;35.07;10.93;;;5.90;99.90;;;;;;4988636;28;20207;-88
2022/01/09 08:48:32;;;;;;;18.93;5.17;;;5.90;99.90;;;;;;5001247;28;20211;-88
2022/01/09 08:50:59;;;;;;;20.87;6.53;;;6.90;99.90;;;;;;4996796;28;20234;-88
2022/01/09 08:53:26;;;;;;;19.93;5.90;;;6.00;99.90;;;;;;4993082;28;20220;-87
2022/01/09 08:55:54;;;;;;;26.37;7.00;;;6.00;99.90;;;;;;4991608;28;20210;-87
2022/01/09 08:58:21;;;;;;;23.27;6.63;;;6.00;99.90;;;;;;5001550;28;20218;-88
2022/01/09 09:00:50;;;;;;;28.47;6.77;;;6.00;99.90;;;;;;4987747;28;20238;-90
2022/01/09 09:03:17;;;;;;;29.33;7.00;;;7.70;99.90;;;;;;4993243;28;20596;-88
2022/01/09 09:05:44;;;;;;;23.37;6.37;;;6.10;99.90;;;;;;4994065;28;20210;-89
2022/01/09 09:08:11;;;;;;;16.63;4.60;;;6.20;99.90;;;;;;4998970;28;20686;-88
2022/01/09 09:10:38;;;;;;;22.30;5.80;;;6.30;99.90;;;;;;5010396;28;20226;-88
2022/01/09 09:13:09;;;;;;;21.33;5.07;;;6.40;99.90;;;;;;4997487;28;20226;-88
2022/01/09 09:15:38;;;;;;;22.83;5.90;;;6.50;99.90;;;;;;5011800;28;20203;-87
2022/01/09 09:18:05;;;;;;;27.33;5.43;;;6.50;99.90;;;;;;5003469;28;20194;-88
2022/01/09 09:20:33;;;;;;;18.23;4.70;;;6.60;99.90;;;;;;5013517;28;20629;-88
2022/01/09 09:22:59;;;;;;;17.37;4.43;;;6.60;99.90;;;;;;5006472;28;20571;-88
2022/01/09 09:25:27;;;;;;;19.60;5.37;;;6.70;99.90;;;;;;5012227;28;20802;-88
2022/01/09 09:27:54;;;;;;;15.90;4.67;;;6.80;99.90;;;;;;5014224;28;20207;-88
2022/01/09 09:30:22;;;;;;;20.90;4.27;;;7.30;99.90;;;;;;4991991;28;20234;-88
2022/01/09 09:32:49;;;;;;;22.57;5.53;;;6.80;99.90;;;;;;4992680;28;20321;-88
2022/01/09 09:35:16;;;;;;;17.63;5.13;;;6.80;99.90;;;;;;4995043;28;20741;-88
2022/01/09 09:37:45;;;;;;;25.03;6.83;;;6.80;99.90;;;;;;4995934;28;20500;-89
2022/01/09 09:40:12;;;;;;;27.83;7.97;;;5.80;99.90;;;;;;4997376;28;20222;-89
2022/01/09 09:42:50;;;;;;;20.93;5.33;;;6.80;99.90;;;;;;4999217;28;20277;-89
2022/01/09 09:45:17;;;;;;;21.47;6.07;;;6.80;99.90;;;;;;4993065;28;20281;-88
2022/01/09 09:47:46;;;;;;;16.97;5.33;;;6.90;99.90;;;;;;4993322;28;20198;-88
2022/01/09 09:50:16;;;;;;;21.13;5.43;;;6.90;99.90;;;;;;4992967;28;20257;-88
2022/01/09 09:52:44;;;;;;;19.30;4.80;;;8.20;99.90;;;;;;4992242;28;20239;-88
2022/01/09 09:55:12;;;;;;;14.90;4.83;;;7.00;99.90;;;;;;4992853;28;20191;-89
2022/01/09 09:57:39;;;;;;;26.73;6.80;;;7.00;99.90;;;;;;4994474;28;20551;-89
2022/01/09 10:00:10;;;;;;;17.70;5.33;;;7.90;99.90;;;;;;4993376;28;20229;-89
2022/01/09 10:02:44;;;;;;;26.47;5.87;;;7.10;99.90;;;;;;5001647;28;20201;-89
2022/01/09 10:05:15;;;;;;;17.43;5.00;;;7.70;99.90;;;;;;4988039;28;20211;-89
2022/01/09 10:07:42;;;;;;;17.63;5.30;;;7.60;99.90;;;;;;4993837;28;20214;-89
2022/01/09 10:10:11;;;;;;;26.97;6.30;;;7.20;99.90;;;;;;5009764;28;20230;-89
2022/01/09 10:12:38;;;;;;;21.23;5.23;;;7.20;99.90;;;;;;4994437;28;20226;-89
2022/01/09 10:15:08;;;;;;;18.90;5.07;;;7.30;99.90;;;;;;5007546;28;20234;-88
2022/01/09 10:17:36;;;;;;;15.10;4.63;;;7.30;99.90;;;;;;4992179;28;20225;-89
2022/01/09 10:20:09;;;;;;;21.97;5.43;;;7.30;99.90;;;;;;4995412;28;20210;-88
2022/01/09 10:22:40;;;;;;;18.70;4.67;;;7.30;99.90;;;;;;4998575;28;20206;-89
2022/01/09 10:25:31;;;;;;;16.60;4.83;;;7.40;99.90;;;;;;4997321;28;20226;-89
2022/01/09 10:28:08;;;;;;;11.23;4.10;;;7.40;99.90;;;;;;5026613;28;20219;-89
2022/01/09 10:30:38;;;;;;;18.83;5.47;;;7.80;99.90;;;;;;4996579;28;20242;-88
2022/01/09 10:33:08;;;;;;;16.93;5.17;;;7.50;99.90;;;;;;4997084;28;20719;-88
2022/01/09 10:35:36;;;;;;;15.37;4.77;;;9.00;99.90;;;;;;5015818;28;20226;-87
2022/01/09 10:38:23;;;;;;;15.17;5.20;;;7.60;99.90;;;;;;5007553;28;20203;-88
2022/01/09 10:40:54;;;;;;;17.10;5.23;;;7.70;99.90;;;;;;5028915;28;20292;-88
2022/01/09 10:43:23;;;;;;;18.80;5.90;;;7.70;99.90;;;;;;5001826;28;20737;-87
2022/01/09 10:45:59;;;;;;;14.83;4.30;;;7.70;99.90;;;;;;5016353;28;20221;-89
2022/01/09 10:48:35;;;;;;;16.33;4.67;;;7.60;99.90;;;;;;5033164;28;20191;-88
2022/01/09 10:51:04;;;;;;;14.87;5.13;;;7.50;99.90;;;;;;5018462;28;20309;-87
2022/01/09 10:53:34;;;;;;;17.93;6.17;;;7.60;99.90;;;;;;5007944;28;20207;-88
2022/01/09 10:56:07;;;;;;;15.53;5.37;;;7.50;99.90;;;;;;5035169;28;20214;-88
2022/01/09 10:58:39;;;;;;;13.67;5.27;;;8.20;99.90;;;;;;5025846;28;20208;-87
2022/01/09 11:01:18;;;;;;;16.70;5.27;;;7.50;99.90;;;;;;4996631;28;20235;-88
2022/01/09 11:03:47;;;;;;;18.93;6.17;;;7.50;99.90;;;;;;4997183;28;20229;-88
2022/01/09 11:06:17;;;;;;;23.30;6.63;;;7.50;99.90;;;;;;4997691;28;20941;-87
2022/01/09 11:08:48;;;;;;;18.07;6.60;;;7.60;99.90;;;;;;5011687;28;20297;-88
2022/01/09 11:11:27;;;;;;;21.00;7.97;;;7.50;99.90;;;;;;4992718;28;20235;-88
2022/01/09 11:13:57;;;;;;;16.53;5.10;;;7.40;99.90;;;;;;4999492;28;20253;-87
2022/01/09 11:16:36;;;;;;;18.40;6.03;;;7.50;99.90;;;;;;5001470;28;20218;-88
2022/01/09 11:19:06;;;;;;;20.03;5.90;;;7.50;99.90;;;;;;5012567;28;20237;-88
2022/01/09 11:21:35;;;;;;;15.90;4.70;;;7.60;99.90;;;;;;4994521;28;20586;-88
2022/01/09 11:24:35;;;;;;;24.07;6.03;;;8.00;99.90;;;;;;4997696;28;20298;-88
2022/01/09 11:27:15;;;;;;;16.90;5.13;;;7.60;99.90;;;;;;4992780;28;20215;-89
2022/01/09 11:29:53;;;;;;;23.20;6.30;;;7.70;99.90;;;;;;4995540;28;20250;-88
2022/01/09 11:32:32;;;;;;;20.30;6.47;;;7.80;99.90;;;;;;5015913;28;20282;-88
2022/01/09 11:35:05;;;;;;;16.50;5.23;;;8.10;99.90;;;;;;4999074;28;20247;-89
2022/01/09 11:37:49;;;;;;;13.13;4.87;;;8.20;99.90;;;;;;5030580;28;20196;-88
2022/01/09 11:40:25;;;;;;;24.57;7.70;;;8.20;99.90;;;;;;5005265;28;20240;-88
2022/01/09 11:43:03;;;;;;;14.70;6.00;;;8.20;99.90;;;;;;4996859;28;20629;-87
2022/01/09 11:45:42;;;;;;;17.97;5.90;;;8.20;99.90;;;;;;5001207;28;20218;-86
2022/01/09 11:48:09;;;;;;;22.13;6.90;;;8.30;99.90;;;;;;5008570;28;20219;-87
2022/01/09 11:50:42;;;;;;;11.70;3.80;;;8.20;99.90;;;;;;5012838;28;20230;-88
2022/01/09 11:53:09;;;;;;;14.03;5.47;;;8.10;99.90;;;;;;5016148;28;20234;-88
2022/01/09 11:55:41;;;;;;;22.70;7.33;;;8.10;99.90;;;;;;5030938;28;20201;-89
2022/01/09 11:58:11;;;;;;;17.30;6.23;;;8.00;99.90;;;;;;5015480;28;20192;-88
2022/01/09 12:00:42;;;;;;;19.33;6.90;;;8.00;99.90;;;;;;5009347;28;20230;-90
2022/01/09 12:03:39;;;;;;;20.63;6.90;;;8.00;99.90;;;;;;5010270;28;20200;-89
2022/01/09 12:06:09;;;;;;;20.00;6.70;;;7.90;99.90;;;;;;4962454;29;20208;-88
2022/01/09 12:09:10;;;;;;;21.17;7.87;;;7.80;99.90;;;;;;5002615;28;20245;-86
2022/01/09 12:12:08;;;;;;;22.87;7.87;;;7.70;99.90;;;;;;5004112;28;20237;-87
2022/01/09 12:14:56;;;;;;;14.17;4.60;;;7.60;99.90;;;;;;5022720;28;20214;-87
2022/01/09 12:17:41;;;;;;;17.20;4.83;;;7.50;99.90;;;;;;5004441;28;20611;-87
2022/01/09 12:20:17;;;;;;;19.20;5.37;;;7.50;99.90;;;;;;5010439;28;20217;-89
2022/01/09 12:23:02;;;;;;;13.10;4.73;;;7.70;99.90;;;;;;5005387;28;20210;-89
2022/01/09 12:25:45;;;;;;;18.40;5.30;;;7.60;99.90;;;;;;5005987;28;20213;-90
2022/01/09 12:28:17;;;;;;;14.10;4.80;;;7.70;99.90;;;;;;4998595;28;20293;-89
2022/01/09 12:30:48;;;;;;;12.90;4.23;;;7.70;99.90;;;;;;5009864;28;20230;-91
2022/01/09 12:33:49;;;;;;;14.80;4.70;;;7.90;99.90;;;;;;4999089;28;20218;-90
2022/01/09 12:36:31;;;;;;;17.97;5.27;;;7.70;99.90;;;;;;4995870;28;20222;-89
2022/01/09 12:39:03;;;;;;;16.67;4.83;;;7.70;99.90;;;;;;5003894;28;20219;-89
2022/01/09 12:41:34;;;;;;;18.63;6.17;;;7.60;99.90;;;;;;4994068;28;20255;-90
2022/01/09 12:44:08;;;;;;;16.27;4.70;;;7.50;99.90;;;;;;5003220;28;20241;-90
2022/01/09 12:46:41;;;;;;;21.40;6.07;;;7.50;99.90;;;;;;5012016;28;20209;-89
2022/01/09 12:49:14;;;;;;;17.53;5.47;;;7.50;99.90;;;;;;5001878;28;20208;-88
2022/01/09 12:51:47;;;;;;;18.10;5.10;;;7.40;99.90;;;;;;5004598;28;20242;-88
2022/01/09 12:54:15;;;;;;;15.97;5.33;;;7.40;99.90;;;;;;5005480;28;20265;-88
2022/01/09 12:56:45;;;;;;;14.87;5.40;;;7.30;99.90;;;;;;5007334;28;20211;-88
2022/01/09 12:59:15;;;;;;;17.07;5.77;;;7.40;99.90;;;;;;5004813;28;20207;-88